createdAt,value
2018-08-09T00:00:47.504Z,0
2018-08-09T00:01:57.350Z,0
2018-08-09T00:03:06.925Z,0
2018-08-09T00:04:16.773Z,0
2018-08-09T00:05:26.617Z,0
2018-08-09T00:06:36.469Z,0
2018-08-09T00:07:45.779Z,0
2018-08-09T00:08:55.632Z,0
2018-08-09T00:10:05.478Z,0
2018-08-09T00:11:15.318Z,0
2018-08-09T00:12:25.431Z,0
2018-08-09T00:13:35.280Z,0
2018-08-09T00:14:45.135Z,0
2018-08-09T00:15:54.718Z,0
2018-08-09T00:17:04.297Z,0
2018-08-09T00:18:14.147Z,0
2018-08-09T00:19:23.183Z,0
2018-08-09T00:20:32.759Z,0
2018-08-09T00:21:42.344Z,0
2018-08-09T00:22:51.650Z,0
2018-08-09T00:24:01.411Z,0
2018-08-09T00:25:11.254Z,0
2018-08-09T00:26:20.564Z,0
2018-08-09T00:27:30.146Z,0
2018-08-09T00:28:39.181Z,0
2018-08-09T00:29:48.751Z,0
2018-08-09T00:30:58.615Z,0
2018-08-09T00:32:08.736Z,0
2018-08-09T00:33:18.577Z,0
2018-08-09T00:34:27.882Z,0
2018-08-09T00:35:37.728Z,0
2018-08-09T00:36:47.030Z,0
2018-08-09T00:37:57.144Z,0
2018-08-09T00:39:06.449Z,0
2018-08-09T00:40:16.299Z,0
2018-08-09T00:41:26.419Z,0
2018-08-09T00:42:35.991Z,0
2018-08-09T00:43:45.564Z,0
2018-08-09T00:44:55.413Z,0
2018-08-09T00:46:05.259Z,0
2018-08-09T00:47:14.832Z,0
2018-08-09T00:48:24.690Z,0
2018-08-09T00:49:34.258Z,0
2018-08-09T00:50:43.841Z,0
2018-08-09T00:51:53.410Z,0
2018-08-09T00:53:02.983Z,0
2018-08-09T00:54:12.291Z,0
2018-08-09T00:55:21.593Z,0
2018-08-09T00:56:30.902Z,0
2018-08-09T00:57:40.752Z,0
2018-08-09T00:58:50.601Z,0
2018-08-09T00:59:59.638Z,0
2018-08-09T01:01:08.680Z,0
2018-08-09T01:02:17.984Z,0
2018-08-09T01:03:27.286Z,0
2018-08-09T01:04:37.130Z,0
2018-08-09T01:05:46.706Z,0
2018-08-09T01:06:56.330Z,0
2018-08-09T01:08:05.917Z,0
2018-08-09T01:09:14.948Z,0
2018-08-09T01:10:24.251Z,0
2018-08-09T01:11:33.283Z,0
2018-08-09T01:12:42.593Z,0
2018-08-09T01:13:52.439Z,0
2018-08-09T01:15:02.285Z,0
2018-08-09T01:16:11.859Z,0
2018-08-09T01:17:21.979Z,0
2018-08-09T01:18:31.555Z,0
2018-08-09T01:19:41.400Z,0
2018-08-09T01:20:50.977Z,0
2018-08-09T01:22:00.551Z,0
2018-08-09T01:23:10.126Z,0
2018-08-09T01:24:19.703Z,0
2018-08-09T01:25:29.548Z,0
2018-08-09T01:26:39.122Z,0
2018-08-09T01:27:48.968Z,0
2018-08-09T01:28:58.539Z,0
2018-08-09T01:30:07.849Z,0
2018-08-09T01:31:17.688Z,0
2018-08-09T01:32:27.262Z,0
2018-08-09T01:33:36.572Z,0
2018-08-09T01:34:46.143Z,0
2018-08-09T01:35:55.721Z,0
2018-08-09T01:37:05.574Z,0
2018-08-09T01:38:15.151Z,0
2018-08-09T01:39:24.719Z,0
2018-08-09T01:40:33.751Z,0
2018-08-09T01:41:43.870Z,0
2018-08-09T01:42:53.713Z,0
2018-08-09T01:44:03.551Z,0
2018-08-09T01:45:13.148Z,0
2018-08-09T01:46:22.460Z,0
2018-08-09T01:47:32.310Z,0
2018-08-09T01:48:42.156Z,0
2018-08-09T01:49:51.731Z,0
2018-08-09T01:51:01.306Z,0
2018-08-09T01:52:10.887Z,0
2018-08-09T01:53:20.999Z,0
2018-08-09T01:54:30.856Z,0
2018-08-09T01:55:40.427Z,0
2018-08-09T01:56:50.273Z,0
2018-08-09T01:58:00.395Z,0
2018-08-09T01:59:09.974Z,0
2018-08-09T02:00:19.284Z,0
2018-08-09T02:01:28.589Z,0
2018-08-09T02:02:38.436Z,0
2018-08-09T02:03:48.547Z,0
2018-08-09T02:04:58.322Z,0
2018-08-09T02:06:08.583Z,0
2018-08-09T02:07:18.520Z,0
2018-08-09T02:08:28.105Z,0
2018-08-09T02:09:37.677Z,0
2018-08-09T02:10:47.255Z,0
2018-08-09T02:11:56.837Z,0
2018-08-09T02:13:06.415Z,0
2018-08-09T02:14:15.993Z,0
2018-08-09T02:15:25.297Z,0
2018-08-09T02:16:35.140Z,0
2018-08-09T02:17:44.714Z,0
2018-08-09T02:18:54.565Z,0
2018-08-09T02:20:04.405Z,0
2018-08-09T02:21:14.518Z,0
2018-08-09T02:22:24.415Z,0
2018-08-09T02:23:34.265Z,0
2018-08-09T02:24:43.844Z,0
2018-08-09T02:25:53.682Z,0
2018-08-09T02:27:03.542Z,0
2018-08-09T02:28:13.113Z,0
2018-08-09T02:29:22.416Z,0
2018-08-09T02:30:32.543Z,0
2018-08-09T02:31:42.393Z,0
2018-08-09T02:32:52.526Z,0
2018-08-09T02:34:02.118Z,0
2018-08-09T02:35:11.977Z,0
2018-08-09T02:36:21.553Z,0
2018-08-09T02:37:31.407Z,0
2018-08-09T02:38:41.257Z,0
2018-08-09T02:39:51.109Z,0
2018-08-09T02:41:01.246Z,0
2018-08-09T02:42:11.093Z,0
2018-08-09T02:43:20.684Z,0
2018-08-09T02:44:30.263Z,0
2018-08-09T02:45:40.123Z,0
2018-08-09T02:46:50.309Z,0
2018-08-09T02:48:00.697Z,0
2018-08-09T02:49:10.279Z,0
2018-08-09T02:50:20.149Z,0
2018-08-09T02:51:30.276Z,0
2018-08-09T02:52:40.413Z,0
2018-08-09T02:53:49.990Z,0
2018-08-09T02:55:00.106Z,0
2018-08-09T02:56:10.223Z,0
2018-08-09T02:57:20.095Z,0
2018-08-09T02:58:29.958Z,0
2018-08-09T02:59:39.273Z,0
2018-08-09T03:00:49.401Z,0
2018-08-09T03:01:58.982Z,0
2018-08-09T03:03:08.843Z,0
2018-08-09T03:04:18.424Z,0
2018-08-09T03:05:27.724Z,0
2018-08-09T03:06:37.316Z,0
2018-08-09T03:07:47.169Z,0
2018-08-09T03:08:57.030Z,0
2018-08-09T03:10:07.160Z,0
2018-08-09T03:11:16.740Z,0
2018-08-09T03:12:26.321Z,0
2018-08-09T03:13:35.903Z,0
2018-08-09T03:14:45.750Z,0
2018-08-09T03:15:55.061Z,0
2018-08-09T03:17:04.915Z,0
2018-08-09T03:18:14.223Z,0
2018-08-09T03:19:24.077Z,0
2018-08-09T03:20:33.929Z,0
2018-08-09T03:21:43.778Z,0
2018-08-09T03:22:53.624Z,0
2018-08-09T03:24:03.746Z,4
2018-08-09T03:25:13.598Z,4
2018-08-09T03:26:23.173Z,4
2018-08-09T03:27:33.023Z,4
2018-08-09T03:28:42.601Z,4
2018-08-09T03:29:52.170Z,8
2018-08-09T03:31:01.733Z,4
2018-08-09T03:32:11.061Z,8
2018-08-09T03:33:20.634Z,8
2018-08-09T03:34:29.938Z,12
2018-08-09T03:35:40.047Z,12
2018-08-09T03:36:49.623Z,12
2018-08-09T03:37:59.475Z,20
2018-08-09T03:39:08.780Z,20
2018-08-09T03:40:18.623Z,24
2018-08-09T03:41:27.926Z,28
2018-08-09T03:42:37.499Z,32
2018-08-09T03:43:47.399Z,36
2018-08-09T03:44:57.251Z,40
2018-08-09T03:46:06.844Z,48
2018-08-09T03:47:16.679Z,60
2018-08-09T03:48:26.251Z,64
2018-08-09T03:49:35.829Z,76
2018-08-09T03:50:45.680Z,84
2018-08-09T03:51:55.532Z,96
2018-08-09T03:53:05.111Z,108
2018-08-09T03:54:14.965Z,120
2018-08-09T03:55:24.548Z,132
2018-08-09T03:56:34.405Z,144
2018-08-09T03:57:43.712Z,160
2018-08-09T03:58:53.562Z,176
2018-08-09T04:00:03.144Z,192
2018-08-09T04:01:12.446Z,204
2018-08-09T04:02:21.217Z,220
2018-08-09T04:03:30.794Z,240
2018-08-09T04:04:40.377Z,256
2018-08-09T04:05:49.962Z,272
2018-08-09T04:06:59.531Z,288
2018-08-09T04:08:08.850Z,304
2018-08-09T04:09:18.962Z,324
2018-08-09T04:10:29.093Z,340
2018-08-09T04:11:38.407Z,360
2018-08-09T04:12:48.599Z,380
2018-08-09T04:13:58.712Z,396
2018-08-09T04:15:08.562Z,416
2018-08-09T04:16:18.418Z,436
2018-08-09T04:17:27.992Z,456
2018-08-09T04:18:37.836Z,476
2018-08-09T04:19:47.141Z,492
2018-08-09T04:20:56.450Z,516
2018-08-09T04:22:05.754Z,532
2018-08-09T04:23:15.611Z,556
2018-08-09T04:24:25.191Z,576
2018-08-09T04:25:35.035Z,596
2018-08-09T04:26:44.770Z,616
2018-08-09T04:27:54.357Z,636
2018-08-09T04:29:03.662Z,656
2018-08-09T04:30:13.243Z,676
2018-08-09T04:31:22.819Z,696
2018-08-09T04:32:32.122Z,716
2018-08-09T04:33:41.981Z,740
2018-08-09T04:34:51.018Z,760
2018-08-09T04:36:00.600Z,780
2018-08-09T04:37:10.438Z,796
2018-08-09T04:38:20.565Z,820
2018-08-09T04:39:29.602Z,840
2018-08-09T04:40:39.174Z,860
2018-08-09T04:41:48.746Z,884
2018-08-09T04:42:58.406Z,904
2018-08-09T04:44:08.246Z,924
2018-08-09T04:45:17.816Z,944
2018-08-09T04:46:27.672Z,964
2018-08-09T04:47:36.976Z,980
2018-08-09T04:48:46.827Z,988
2018-08-09T04:49:56.681Z,1000
2018-08-09T04:51:05.989Z,1012
2018-08-09T04:52:15.564Z,1036
2018-08-09T04:53:25.679Z,1056
2018-08-09T04:54:35.526Z,1072
2018-08-09T04:55:45.659Z,1088
2018-08-09T04:56:55.513Z,1104
2018-08-09T04:58:05.102Z,1124
2018-08-09T04:59:15.403Z,1144
2018-08-09T05:00:25.251Z,1160
2018-08-09T05:01:34.834Z,1176
2018-08-09T05:02:44.416Z,1192
2018-08-09T05:03:54.006Z,1208
2018-08-09T05:05:04.128Z,1224
2018-08-09T05:06:14.252Z,1244
2018-08-09T05:07:23.832Z,1260
2018-08-09T05:08:33.677Z,1280
2018-08-09T05:09:42.986Z,1292
2018-08-09T05:10:53.102Z,1312
2018-08-09T05:12:02.947Z,1328
2018-08-09T05:13:13.061Z,1344
2018-08-09T05:14:22.905Z,1360
2018-08-09T05:15:32.489Z,1372
2018-08-09T05:16:41.799Z,1388
2018-08-09T05:17:51.383Z,1404
2018-08-09T05:19:00.958Z,1424
2018-08-09T05:20:10.533Z,1424
2018-08-09T05:21:20.105Z,1436
2018-08-09T05:22:29.421Z,1456
2018-08-09T05:23:38.997Z,1480
2018-08-09T05:24:48.857Z,1496
2018-08-09T05:25:58.713Z,1504
2018-08-09T05:27:08.567Z,1512
2018-08-09T05:28:18.141Z,1528
2018-08-09T05:29:27.727Z,1544
2018-08-09T05:30:37.313Z,1548
2018-08-09T05:31:46.902Z,1552
2018-08-09T05:32:56.477Z,1572
2018-08-09T05:34:05.822Z,1576
2018-08-09T05:35:15.731Z,1580
2018-08-09T05:36:25.307Z,1588
2018-08-09T05:37:34.620Z,1612
2018-08-09T05:38:43.655Z,1636
2018-08-09T05:39:53.235Z,1648
2018-08-09T05:41:03.130Z,1656
2018-08-09T05:42:13.249Z,1672
2018-08-09T05:43:22.557Z,1684
2018-08-09T05:44:32.744Z,1700
2018-08-09T05:45:42.590Z,1692
2018-08-09T05:46:52.430Z,1708
2018-08-09T05:48:02.291Z,1716
2018-08-09T05:49:11.593Z,1720
2018-08-09T05:50:21.168Z,1736
2018-08-09T05:51:31.273Z,1752
2018-08-09T05:52:40.122Z,1768
2018-08-09T05:53:50.364Z,1776
2018-08-09T05:54:59.677Z,1776
2018-08-09T05:56:09.259Z,1776
2018-08-09T05:57:19.411Z,1772
2018-08-09T05:58:29.409Z,1776
2018-08-09T05:59:39.407Z,1788
2018-08-09T06:00:48.979Z,1808
2018-08-09T06:01:58.555Z,1824
2018-08-09T06:03:08.135Z,1836
2018-08-09T06:04:18.246Z,1848
2018-08-09T06:05:27.017Z,1860
2018-08-09T06:06:36.858Z,1880
2018-08-09T06:07:46.991Z,1892
2018-08-09T06:08:57.105Z,1908
2018-08-09T06:10:06.682Z,1920
2018-08-09T06:11:16.792Z,1940
2018-08-09T06:12:26.632Z,1968
2018-08-09T06:13:37.149Z,1992
2018-08-09T06:14:47.277Z,2008
2018-08-09T06:15:56.856Z,2012
2018-08-09T06:17:06.720Z,2028
2018-08-09T06:18:16.835Z,2044
2018-08-09T06:19:26.690Z,2064
2018-08-09T06:20:36.545Z,2092
2018-08-09T06:21:46.388Z,2124
2018-08-09T06:22:55.970Z,2148
2018-08-09T06:24:05.544Z,2168
2018-08-09T06:25:15.401Z,2184
2018-08-09T06:26:25.835Z,2204
2018-08-09T06:27:35.551Z,2220
2018-08-09T06:28:45.897Z,2232
2018-08-09T06:29:56.168Z,2264
2018-08-09T06:31:05.471Z,2312
2018-08-09T06:32:15.053Z,2360
2018-08-09T06:33:25.004Z,2388
2018-08-09T06:34:35.268Z,2444
2018-08-09T06:35:44.583Z,2468
2018-08-09T06:36:54.165Z,2500
2018-08-09T06:38:03.741Z,2532
2018-08-09T06:39:13.055Z,2512
2018-08-09T06:40:22.627Z,2624
2018-08-09T06:41:32.480Z,2740
2018-08-09T06:42:42.317Z,2764
2018-08-09T06:43:51.353Z,2708
2018-08-09T06:45:00.657Z,2632
2018-08-09T06:46:10.247Z,2588
2018-08-09T06:47:20.106Z,2832
2018-08-09T06:48:29.674Z,3120
2018-08-09T06:49:39.252Z,3272
2018-08-09T06:50:48.830Z,3260
2018-08-09T06:51:58.405Z,3032
2018-08-09T06:53:07.718Z,2772
2018-08-09T06:54:17.577Z,2620
2018-08-09T06:55:27.153Z,2592
2018-08-09T06:56:37.006Z,2672
2018-08-09T06:57:46.856Z,2884
2018-08-09T06:58:56.425Z,3064
2018-08-09T07:00:06.001Z,3296
2018-08-09T07:01:15.843Z,3532
2018-08-09T07:02:25.418Z,3448
2018-08-09T07:03:35.278Z,3716
2018-08-09T07:04:45.129Z,4376
2018-08-09T07:05:55.253Z,4692
2018-08-09T07:07:05.415Z,4812
2018-08-09T07:08:15.064Z,5268
2018-08-09T07:09:24.934Z,5888
2018-08-09T07:10:34.785Z,5684
2018-08-09T07:11:44.412Z,5228
2018-08-09T07:12:54.680Z,5024
2018-08-09T07:14:04.326Z,4812
2018-08-09T07:15:14.442Z,4564
2018-08-09T07:16:23.751Z,4968
2018-08-09T07:17:33.376Z,5204
2018-08-09T07:18:43.497Z,4776
2018-08-09T07:19:53.349Z,3828
2018-08-09T07:21:03.198Z,3140
2018-08-09T07:22:13.040Z,3116
2018-08-09T07:23:22.887Z,3480
2018-08-09T07:24:31.655Z,4344
2018-08-09T07:25:41.238Z,5292
2018-08-09T07:26:50.545Z,5604
2018-08-09T07:28:00.398Z,5152
2018-08-09T07:29:09.707Z,4048
2018-08-09T07:30:19.292Z,3156
2018-08-09T07:31:29.418Z,3120
2018-08-09T07:32:39.267Z,3208
2018-08-09T07:33:49.037Z,3296
2018-08-09T07:34:58.909Z,3080
2018-08-09T07:36:08.760Z,2908
2018-08-09T07:37:18.338Z,2880
2018-08-09T07:38:27.916Z,2904
2018-08-09T07:39:38.764Z,3012
2018-08-09T07:40:48.738Z,3404
2018-08-09T07:41:58.312Z,4172
2018-08-09T07:43:08.433Z,4692
2018-08-09T07:44:18.010Z,4764
2018-08-09T07:45:27.852Z,4584
2018-08-09T07:46:37.756Z,4080
2018-08-09T07:47:47.327Z,3592
2018-08-09T07:48:57.417Z,3400
2018-08-09T07:50:06.456Z,3396
2018-08-09T07:51:16.324Z,3592
2018-08-09T07:52:25.909Z,3988
2018-08-09T07:53:34.947Z,4472
2018-08-09T07:54:44.533Z,5632
2018-08-09T07:55:53.837Z,8128
2018-08-09T07:57:03.595Z,8172
2018-08-09T07:58:13.113Z,7004
2018-08-09T07:59:22.423Z,6844
2018-08-09T08:00:32.542Z,7800
2018-08-09T08:01:42.388Z,8792
2018-08-09T08:02:51.690Z,9444
2018-08-09T08:04:01.276Z,9352
2018-08-09T08:05:10.866Z,8572
2018-08-09T08:06:20.990Z,7928
2018-08-09T08:07:30.849Z,7944
2018-08-09T08:08:40.164Z,7548
2018-08-09T08:09:49.739Z,8180
2018-08-09T08:10:59.595Z,8240
2018-08-09T08:12:09.179Z,7444
2018-08-09T08:13:18.751Z,6772
2018-08-09T08:14:28.063Z,6676
2018-08-09T08:15:37.968Z,5760
2018-08-09T08:16:47.816Z,4524
2018-08-09T08:17:57.126Z,4004
2018-08-09T08:19:06.977Z,3876
2018-08-09T08:20:16.281Z,3900
2018-08-09T08:21:26.481Z,3884
2018-08-09T08:22:35.794Z,3860
2018-08-09T08:23:45.645Z,4180
2018-08-09T08:24:55.494Z,4580
2018-08-09T08:26:04.263Z,4772
2018-08-09T08:27:14.396Z,4912
2018-08-09T08:28:23.973Z,4912
2018-08-09T08:29:33.543Z,4808
2018-08-09T08:30:43.389Z,4432
2018-08-09T08:31:52.696Z,4688
2018-08-09T08:33:02.276Z,6100
2018-08-09T08:34:11.857Z,8448
2018-08-09T08:35:21.976Z,9316
2018-08-09T08:36:31.830Z,9080
2018-08-09T08:37:41.687Z,7656
2018-08-09T08:38:50.991Z,5616
2018-08-09T08:40:01.111Z,4792
2018-08-09T08:41:10.975Z,4964
2018-08-09T08:42:21.139Z,5164
2018-08-09T08:43:31.391Z,5084
2018-08-09T08:44:40.972Z,4612
2018-08-09T08:45:50.285Z,4272
2018-08-09T08:46:59.860Z,4212
2018-08-09T08:48:09.980Z,4180
2018-08-09T08:49:19.028Z,4484
2018-08-09T08:50:28.612Z,5172
2018-08-09T08:51:38.730Z,7092
2018-08-09T08:52:48.581Z,8776
2018-08-09T08:53:57.891Z,9048
2018-08-09T08:55:07.842Z,9596
2018-08-09T08:56:17.777Z,10052
2018-08-09T08:57:27.082Z,10336
2018-08-09T08:58:36.932Z,9756
2018-08-09T08:59:46.583Z,8568
2018-08-09T09:00:56.570Z,7696
2018-08-09T09:02:05.964Z,7520
2018-08-09T09:03:16.072Z,7560
2018-08-09T09:04:25.554Z,7972
2018-08-09T09:05:35.481Z,8196
2018-08-09T09:06:45.607Z,8216
2018-08-09T09:07:54.917Z,7604
2018-08-09T09:09:04.496Z,8052
2018-08-09T09:10:14.386Z,8460
2018-08-09T09:11:24.509Z,8168
2018-08-09T09:12:33.813Z,8208
2018-08-09T09:13:43.863Z,8212
2018-08-09T09:14:53.603Z,8052
2018-08-09T09:16:03.459Z,7952
2018-08-09T09:17:13.304Z,7588
2018-08-09T09:18:22.893Z,7708
2018-08-09T09:19:32.471Z,8296
2018-08-09T09:20:42.052Z,8564
2018-08-09T09:21:51.894Z,8332
2018-08-09T09:23:01.741Z,8084
2018-08-09T09:24:11.593Z,7492
2018-08-09T09:25:21.177Z,6848
2018-08-09T09:26:31.296Z,6740
2018-08-09T09:27:40.873Z,7196
2018-08-09T09:28:50.471Z,7204
2018-08-09T09:30:00.051Z,6592
2018-08-09T09:31:09.377Z,5908
2018-08-09T09:32:19.225Z,5796
2018-08-09T09:33:29.076Z,6092
2018-08-09T09:34:38.921Z,6388
2018-08-09T09:35:48.772Z,7092
2018-08-09T09:36:58.081Z,7924
2018-08-09T09:38:07.930Z,8504
2018-08-09T09:39:17.784Z,8788
2018-08-09T09:40:27.636Z,8908
2018-08-09T09:41:37.216Z,9284
2018-08-09T09:42:46.804Z,9928
2018-08-09T09:43:56.662Z,10580
2018-08-09T09:45:06.511Z,10868
2018-08-09T09:46:16.096Z,10152
2018-08-09T09:47:26.218Z,8112
2018-08-09T09:48:35.251Z,7608
2018-08-09T09:49:45.574Z,8864
2018-08-09T09:50:54.977Z,10616
2018-08-09T09:52:04.549Z,11920
2018-08-09T09:53:14.132Z,11668
2018-08-09T09:54:23.713Z,10712
2018-08-09T09:55:33.310Z,9948
2018-08-09T09:56:43.172Z,9556
2018-08-09T09:57:52.567Z,9192
2018-08-09T09:59:02.416Z,9144
2018-08-09T10:00:11.719Z,9736
2018-08-09T10:01:20.790Z,11000
2018-08-09T10:02:30.208Z,11704
2018-08-09T10:03:39.606Z,12116
2018-08-09T10:04:49.190Z,12308
2018-08-09T10:05:58.783Z,12016
2018-08-09T10:07:08.689Z,10976
2018-08-09T10:08:18.500Z,9436
2018-08-09T10:09:28.086Z,7540
2018-08-09T10:10:38.253Z,5568
2018-08-09T10:11:48.557Z,4120
2018-08-09T10:12:58.403Z,3584
2018-08-09T10:14:08.258Z,4084
2018-08-09T10:15:18.119Z,5264
2018-08-09T10:16:28.288Z,6332
2018-08-09T10:17:38.152Z,6860
2018-08-09T10:18:48.148Z,7340
2018-08-09T10:19:58.234Z,7676
2018-08-09T10:21:08.356Z,8020
2018-08-09T10:22:17.942Z,8456
2018-08-09T10:23:27.516Z,8928
2018-08-09T10:24:37.642Z,9440
2018-08-09T10:25:47.491Z,9600
2018-08-09T10:26:57.628Z,9956
2018-08-09T10:28:06.982Z,10360
2018-08-09T10:29:16.293Z,10264
2018-08-09T10:30:26.156Z,9912
2018-08-09T10:31:35.759Z,10120
2018-08-09T10:32:45.335Z,10780
2018-08-09T10:33:55.184Z,11240
2018-08-09T10:35:04.760Z,11560
2018-08-09T10:36:14.607Z,11140
2018-08-09T10:37:24.195Z,9704
2018-08-09T10:38:33.772Z,8396
2018-08-09T10:39:43.620Z,8100
2018-08-09T10:40:53.404Z,8612
2018-08-09T10:42:02.723Z,9076
2018-08-09T10:43:12.042Z,8888
2018-08-09T10:44:21.348Z,8268
2018-08-09T10:45:31.204Z,7868
2018-08-09T10:46:41.321Z,8092
2018-08-09T10:47:51.173Z,8872
2018-08-09T10:49:01.546Z,9676
2018-08-09T10:50:11.201Z,9532
2018-08-09T10:51:20.922Z,8888
2018-08-09T10:52:30.505Z,8044
2018-08-09T10:53:40.346Z,7880
2018-08-09T10:54:49.931Z,7872
2018-08-09T10:55:59.801Z,7760
2018-08-09T10:57:09.737Z,7528
2018-08-09T10:58:19.052Z,7280
2018-08-09T10:59:28.966Z,7316
2018-08-09T11:00:39.071Z,6748
2018-08-09T11:01:49.654Z,5928
2018-08-09T11:02:59.552Z,5372
2018-08-09T11:04:09.036Z,5296
2018-08-09T11:05:18.655Z,5496
2018-08-09T11:06:28.936Z,5572
2018-08-09T11:07:38.445Z,5440
2018-08-09T11:08:49.029Z,5372
2018-08-09T11:09:59.180Z,5440
2018-08-09T11:11:09.265Z,5644
2018-08-09T11:12:19.482Z,6156
2018-08-09T11:13:29.124Z,6292
2018-08-09T11:14:38.874Z,5992
2018-08-09T11:15:48.732Z,5788
2018-08-09T11:16:58.822Z,5888
2018-08-09T11:18:08.628Z,5872
2018-08-09T11:19:19.092Z,5980
2018-08-09T11:20:28.669Z,6492
2018-08-09T11:21:38.566Z,7036
2018-08-09T11:22:47.943Z,6960
2018-08-09T11:23:58.328Z,6084
2018-08-09T11:25:08.004Z,4636
2018-08-09T11:26:18.148Z,3776
2018-08-09T11:27:27.827Z,3300
2018-08-09T11:28:37.759Z,3072
2018-08-09T11:29:46.835Z,3116
2018-08-09T11:30:57.008Z,3112
2018-08-09T11:32:06.920Z,2940
2018-08-09T11:33:17.217Z,2740
2018-08-09T11:34:26.556Z,2568
2018-08-09T11:35:36.194Z,2388
2018-08-09T11:36:46.045Z,2196
2018-08-09T11:37:55.956Z,2056
2018-08-09T11:39:05.360Z,2000
2018-08-09T11:40:15.261Z,2072
2018-08-09T11:41:25.160Z,2400
2018-08-09T11:42:34.468Z,3244
2018-08-09T11:43:44.151Z,4708
2018-08-09T11:44:53.998Z,6364
2018-08-09T11:46:03.843Z,7388
2018-08-09T11:47:13.695Z,7352
2018-08-09T11:48:22.735Z,6784
2018-08-09T11:49:32.316Z,5388
2018-08-09T11:50:41.994Z,4188
2018-08-09T11:51:52.582Z,3668
2018-08-09T11:53:02.961Z,3492
2018-08-09T11:54:13.077Z,3520
2018-08-09T11:55:22.948Z,3548
2018-08-09T11:56:33.586Z,3720
2018-08-09T11:57:43.737Z,4604
2018-08-09T11:58:53.496Z,5912
2018-08-09T12:00:03.440Z,6924
2018-08-09T12:01:12.854Z,6460
2018-08-09T12:02:23.065Z,5276
2018-08-09T12:03:33.539Z,4340
2018-08-09T12:04:43.828Z,4932
2018-08-09T12:05:53.145Z,7156
2018-08-09T12:07:03.519Z,9624
2018-08-09T12:08:13.535Z,11040
2018-08-09T12:09:23.395Z,12664
2018-08-09T12:10:33.353Z,15140
2018-08-09T12:11:42.945Z,14992
2018-08-09T12:12:52.801Z,24928
2018-08-09T12:14:01.846Z,65856
2018-08-09T12:15:11.885Z,34208
2018-08-09T12:16:21.758Z,37856
2018-08-09T12:17:31.615Z,65472
2018-08-09T12:18:41.734Z,66304
2018-08-09T12:19:51.589Z,66848
2018-08-09T12:21:01.600Z,65568
2018-08-09T12:22:10.968Z,42784
2018-08-09T12:23:20.545Z,66656
2018-08-09T12:24:29.995Z,21376
2018-08-09T12:25:40.113Z,23296
2018-08-09T12:26:50.001Z,30688
2018-08-09T12:27:59.321Z,28256
2018-08-09T12:29:09.176Z,18432
2018-08-09T12:30:18.508Z,14716
2018-08-09T12:31:28.420Z,16512
2018-08-09T12:32:37.732Z,19776
2018-08-09T12:33:47.317Z,16640
2018-08-09T12:34:57.173Z,21728
2018-08-09T12:36:06.755Z,17056
2018-08-09T12:37:16.075Z,19072
2018-08-09T12:38:26.212Z,22752
2018-08-09T12:39:36.062Z,18304
2018-08-09T12:40:45.105Z,16088
2018-08-09T12:41:54.421Z,15092
2018-08-09T12:43:04.422Z,16308
2018-08-09T12:44:14.289Z,25888
2018-08-09T12:45:24.911Z,24832
2018-08-09T12:46:35.254Z,20704
2018-08-09T12:47:44.844Z,17440
2018-08-09T12:48:54.695Z,15548
2018-08-09T12:50:04.542Z,15016
2018-08-09T12:51:14.120Z,17856
2018-08-09T12:52:23.697Z,44512
2018-08-09T12:53:33.556Z,47840
2018-08-09T12:54:43.137Z,45440
2018-08-09T12:55:52.725Z,47776
2018-08-09T12:57:01.769Z,55232
2018-08-09T12:58:11.623Z,58976
2018-08-09T12:59:21.749Z,63808
2018-08-09T13:00:30.794Z,62144
2018-08-09T13:01:40.393Z,57920
2018-08-09T13:02:49.981Z,34240
2018-08-09T13:03:59.312Z,38368
2018-08-09T13:05:09.169Z,60000
2018-08-09T13:06:19.286Z,51616
2018-08-09T13:07:29.415Z,61312
2018-08-09T13:08:39.278Z,62144
2018-08-09T13:09:49.148Z,61792
2018-08-09T13:10:58.242Z,67488
2018-08-09T13:12:08.088Z,64800
2018-08-09T13:13:17.673Z,65184
2018-08-09T13:14:27.311Z,61536
2018-08-09T13:15:37.442Z,64896
2018-08-09T13:16:47.310Z,65344
2018-08-09T13:17:56.905Z,54784
2018-08-09T13:19:06.765Z,52800
2018-08-09T13:20:16.623Z,58496
2018-08-09T13:21:26.764Z,62336
2018-08-09T13:22:36.354Z,67104
2018-08-09T13:23:45.673Z,71392
2018-08-09T13:24:55.277Z,67936
2018-08-09T13:26:04.872Z,69472
2018-08-09T13:27:14.197Z,69376
2018-08-09T13:28:23.242Z,26176
2018-08-09T13:29:33.109Z,24672
2018-08-09T13:30:43.248Z,70784
2018-08-09T13:31:53.108Z,66976
2018-08-09T13:33:02.696Z,64608
2018-08-09T13:34:12.289Z,57600
2018-08-09T13:35:22.156Z,48352
2018-08-09T13:36:31.796Z,48576
2018-08-09T13:37:41.665Z,52704
2018-08-09T13:38:51.532Z,56928
2018-08-09T13:40:00.856Z,59680
2018-08-09T13:41:10.455Z,47552
2018-08-09T13:42:19.511Z,69024
2018-08-09T13:43:28.674Z,75872
2018-08-09T13:44:37.996Z,74432
2018-08-09T13:45:47.316Z,73280
2018-08-09T13:46:57.199Z,72032
2018-08-09T13:48:07.330Z,71296
2018-08-09T13:49:16.932Z,70016
2018-08-09T13:50:26.529Z,70688
2018-08-09T13:51:36.580Z,67328
2018-08-09T13:52:46.295Z,69408
2018-08-09T13:53:56.581Z,69440
2018-08-09T13:55:06.174Z,61984
2018-08-09T13:56:15.764Z,61728
2018-08-09T13:57:25.359Z,46048
2018-08-09T13:58:35.017Z,45120
2018-08-09T13:59:44.613Z,51648
2018-08-09T14:00:53.673Z,52992
2018-08-09T14:02:03.270Z,56672
2018-08-09T14:03:12.588Z,60096
2018-08-09T14:04:22.454Z,51872
2018-08-09T14:05:32.046Z,46880
2018-08-09T14:06:41.648Z,46720
2018-08-09T14:07:51.251Z,45408
2018-08-09T14:09:01.113Z,39200
2018-08-09T14:10:10.983Z,46016
2018-08-09T14:11:21.130Z,42720
2018-08-09T14:12:30.983Z,23328
2018-08-09T14:13:41.110Z,19872
2018-08-09T14:14:50.169Z,19616
2018-08-09T14:15:59.762Z,17184
2018-08-09T14:17:09.628Z,14664
2018-08-09T14:18:18.682Z,18848
2018-08-09T14:19:28.000Z,16352
2018-08-09T14:20:37.856Z,14580
2018-08-09T14:21:47.442Z,15580
2018-08-09T14:22:57.295Z,17248
2018-08-09T14:24:06.892Z,22752
2018-08-09T14:25:16.912Z,35584
2018-08-09T14:26:26.224Z,45088
2018-08-09T14:27:35.808Z,46784
2018-08-09T14:28:45.395Z,47264
2018-08-09T14:29:55.248Z,40992
2018-08-09T14:31:05.110Z,37856
2018-08-09T14:32:15.242Z,28448
2018-08-09T14:33:24.835Z,21920
2018-08-09T14:34:34.426Z,20320
2018-08-09T14:35:44.016Z,19584
2018-08-09T14:36:52.796Z,20352
2018-08-09T14:38:02.663Z,20864
2018-08-09T14:39:12.246Z,19232
2018-08-09T14:40:21.559Z,15520
2018-08-09T14:41:31.149Z,13412
2018-08-09T14:42:41.356Z,12412
2018-08-09T14:43:51.232Z,12100
2018-08-09T14:45:01.095Z,12056
2018-08-09T14:46:11.232Z,12320
2018-08-09T14:47:20.822Z,11360
2018-08-09T14:48:30.674Z,10696
2018-08-09T14:49:40.541Z,9888
2018-08-09T14:50:50.131Z,9224
2018-08-09T14:51:59.717Z,8404
2018-08-09T14:53:09.580Z,7712
2018-08-09T14:54:18.908Z,7160
2018-08-09T14:55:28.217Z,6772
2018-08-09T14:56:37.805Z,6568
2018-08-09T14:57:47.383Z,6468
2018-08-09T14:58:56.971Z,6440
2018-08-09T15:00:06.835Z,6464
2018-08-09T15:01:16.958Z,6476
2018-08-09T15:02:26.817Z,6540
2018-08-09T15:03:36.403Z,6696
2018-08-09T15:04:46.526Z,6736
2018-08-09T15:05:56.116Z,6548
2018-08-09T15:07:05.971Z,6212
2018-08-09T15:08:15.827Z,6004
2018-08-09T15:09:25.691Z,6000
2018-08-09T15:10:35.548Z,6136
2018-08-09T15:11:45.407Z,6380
2018-08-09T15:12:55.544Z,6664
2018-08-09T15:14:05.129Z,6980
2018-08-09T15:15:14.720Z,7088
2018-08-09T15:16:24.304Z,7008
2018-08-09T15:17:34.425Z,6836
2018-08-09T15:18:44.466Z,6584
2018-08-09T15:19:54.335Z,6272
2018-08-09T15:21:04.187Z,5856
2018-08-09T15:22:13.497Z,5356
2018-08-09T15:23:23.351Z,4784
2018-08-09T15:24:33.345Z,4136
2018-08-09T15:25:43.257Z,3596
2018-08-09T15:26:52.848Z,3220
2018-08-09T15:28:02.704Z,3044
2018-08-09T15:29:12.555Z,2944
2018-08-09T15:30:22.596Z,2844
2018-08-09T15:31:32.451Z,2688
2018-08-09T15:32:42.310Z,2452
2018-08-09T15:33:51.620Z,2148
2018-08-09T15:35:01.471Z,1828
2018-08-09T15:36:10.797Z,1552
2018-08-09T15:37:20.408Z,1324
2018-08-09T15:38:30.294Z,1136
2018-08-09T15:39:40.296Z,992
2018-08-09T15:40:49.622Z,880
2018-08-09T15:41:59.750Z,784
2018-08-09T15:43:09.343Z,708
2018-08-09T15:44:19.202Z,644
2018-08-09T15:45:29.319Z,592
2018-08-09T15:46:38.895Z,556